Time;durP1;ratioP1;P1;durP2;ratioP2;P2;SDS_P1;SDS_P2;PMS_P1;PMS_P2;Temp;Humidity;BMP_temperature;BMP_pressure;BME280_temperature;BME280_humidity;BME280_pressure;Samples;Min_cycle;Max_cycle;Signal;HPM_P1;HPM_P2
2021/04/05 00:00:22;;;;;;;21.30;12.05;;;;;;;;;;5054398;28;20657;-64
2021/04/05 00:02:50;;;;;;;19.98;10.55;;;;;;;;;;5053113;28;20199;-65
2021/04/05 00:05:21;;;;;;;19.77;10.00;;;;;;;;;;5036146;28;20672;-65
2021/04/05 00:07:49;;;;;;;16.13;10.65;;;;;;;;;;5053830;28;20216;-65
2021/04/05 00:10:24;;;;;;;24.52;10.40;;;;;;;;;;5053338;28;20260;-64
2021/04/05 00:12:53;;;;;;;20.17;10.32;;;;;;;;;;5053788;28;20196;-64
2021/04/05 00:15:20;;;;;;;20.95;12.45;;;;;;;;;;5053622;28;20196;-63
2021/04/05 00:17:47;;;;;;;19.75;10.50;;;;;;;;;;5053914;28;20197;-64
2021/04/05 00:20:19;;;;;;;19.45;10.60;;;;;;;;;;5035810;28;20474;-65
2021/04/05 00:22:46;;;;;;;23.70;11.35;;;;;;;;;;5053488;28;20181;-65
2021/04/05 00:25:15;;;;;;;17.23;9.40;;;;;;;;;;5053499;28;20192;-64
2021/04/05 00:27:45;;;;;;;19.23;10.73;;;;;;;;;;5052836;28;20231;-64
2021/04/05 00:30:16;;;;;;;14.73;8.93;;;;;;;;;;5053407;28;20232;-64
2021/04/05 00:32:47;;;;;;;21.30;10.30;;;;;;;;;;5053418;28;20235;-64
2021/04/05 00:35:24;;;;;;;12.02;9.52;;;;;;;;;;5053432;28;20208;-62
2021/04/05 00:37:51;;;;;;;15.35;9.15;;;;;;;;;;5053361;28;20196;-64
2021/04/05 00:40:19;;;;;;;15.88;9.20;;;;;;;;;;5053215;28;20232;-64
2021/04/05 00:42:47;;;;;;;22.55;9.73;;;;;;;;;;5053432;28;20193;-64
2021/04/05 00:45:15;;;;;;;15.27;9.20;;;;;;;;;;5053692;28;20199;-64
2021/04/05 00:47:47;;;;;;;18.85;10.60;;;;;;;;;;5053281;28;20196;-64
2021/04/05 00:50:14;;;;;;;14.48;9.45;;;;;;;;;;5053147;28;20590;-64
2021/04/05 00:52:41;;;;;;;13.88;9.75;;;;;;;;;;5053166;28;20580;-63
2021/04/05 00:55:09;;;;;;;18.85;10.52;;;;;;;;;;5053142;28;20185;-64
2021/04/05 00:57:38;;;;;;;20.52;9.70;;;;;;;;;;5053786;28;20624;-63
2021/04/05 01:00:07;;;;;;;22.13;9.68;;;;;;;;;;5053151;28;20193;-64
2021/04/05 01:02:35;;;;;;;25.90;9.65;;;;;;;;;;5053942;28;20242;-66
2021/04/05 01:05:03;;;;;;;18.27;10.38;;;;;;;;;;5053504;28;20204;-66
2021/04/05 01:07:35;;;;;;;13.13;9.27;;;;;;;;;;5053262;28;20181;-66
2021/04/05 01:10:01;;;;;;;18.92;9.43;;;;;;;;;;5053144;28;20351;-66
2021/04/05 01:12:31;;;;;;;18.05;10.18;;;;;;;;;;5053360;28;20189;-66
2021/04/05 01:14:58;;;;;;;20.65;9.40;;;;;;;;;;5056549;28;20199;-65
2021/04/05 01:17:25;;;;;;;18.67;10.35;;;;;;;;;;5057025;28;20565;-65
2021/04/05 01:19:52;;;;;;;18.80;9.85;;;;;;;;;;5056365;28;20204;-66
2021/04/05 01:22:18;;;;;;;15.15;9.43;;;;;;;;;;5056803;28;20192;-66
2021/04/05 01:24:47;;;;;;;14.30;9.23;;;;;;;;;;5056960;28;20188;-66
2021/04/05 01:27:14;;;;;;;18.98;9.77;;;;;;;;;;5056830;28;20549;-65
2021/04/05 01:29:40;;;;;;;15.15;10.20;;;;;;;;;;5056747;28;20577;-66
2021/04/05 01:32:08;;;;;;;14.23;9.25;;;;;;;;;;5056605;28;20189;-66
2021/04/05 01:34:38;;;;;;;15.82;8.77;;;;;;;;;;5056605;28;20200;-66
2021/04/05 01:37:09;;;;;;;14.27;8.43;;;;;;;;;;5056875;28;20172;-66
2021/04/05 01:39:37;;;;;;;15.85;8.90;;;;;;;;;;5056597;28;20193;-66
2021/04/05 01:42:04;;;;;;;14.20;10.00;;;;;;;;;;5056694;28;20224;-66
2021/04/05 01:44:34;;;;;;;25.10;10.70;;;;;;;;;;5056903;28;20635;-66
2021/04/05 01:47:02;;;;;;;13.88;8.18;;;;;;;;;;5056840;28;20550;-66
2021/04/05 01:49:30;;;;;;;14.60;9.23;;;;;;;;;;5056711;28;20303;-66
2021/04/05 01:51:58;;;;;;;19.60;10.07;;;;;;;;;;5056354;28;20196;-66
2021/04/05 01:54:25;;;;;;;13.30;8.65;;;;;;;;;;5056240;28;20201;-66
2021/04/05 01:56:51;;;;;;;14.80;8.60;;;;;;;;;;5038416;28;20200;-66
2021/04/05 01:59:19;;;;;;;13.32;9.48;;;;;;;;;;5056354;28;20189;-66
2021/04/05 02:01:46;;;;;;;22.45;10.00;;;;;;;;;;5056114;28;20529;-66
2021/04/05 02:04:13;;;;;;;19.85;8.45;;;;;;;;;;5056413;28;20198;-66
2021/04/05 02:06:43;;;;;;;15.23;7.57;;;;;;;;;;5056225;28;20226;-66
2021/04/05 02:09:13;;;;;;;20.60;9.18;;;;;;;;;;5056030;28;20196;-66
2021/04/05 02:11:40;;;;;;;16.40;8.63;;;;;;;;;;5056117;28;20233;-66
2021/04/05 02:14:08;;;;;;;14.18;7.60;;;;;;;;;;5056024;28;20193;-66
2021/04/05 02:16:34;;;;;;;19.67;10.15;;;;;;;;;;5056217;28;20210;-66
2021/04/05 02:19:03;;;;;;;13.98;7.57;;;;;;;;;;5056196;28;20247;-66
2021/04/05 02:21:30;;;;;;;20.50;8.98;;;;;;;;;;5056413;28;20196;-66
2021/04/05 02:24:06;;;;;;;17.77;8.25;;;;;;;;;;5055862;28;20200;-66
2021/04/05 02:26:36;;;;;;;14.82;7.50;;;;;;;;;;5055549;28;20200;-66
2021/04/05 02:29:08;;;;;;;14.45;7.63;;;;;;;;;;5055724;28;20195;-66
2021/04/05 02:31:37;;;;;;;14.65;8.70;;;;;;;;;;5055920;28;20193;-66
2021/04/05 02:34:05;;;;;;;15.73;9.15;;;;;;;;;;5038673;28;20203;-66
2021/04/05 02:36:34;;;;;;;16.40;8.18;;;;;;;;;;5056026;28;20196;-66
2021/04/05 02:39:07;;;;;;;13.75;8.25;;;;;;;;;;5039148;28;20230;-66
2021/04/05 02:41:35;;;;;;;15.27;8.40;;;;;;;;;;5055392;28;20236;-66
2021/04/05 02:44:05;;;;;;;19.15;8.68;;;;;;;;;;5056003;28;20559;-66
2021/04/05 02:46:33;;;;;;;14.23;9.23;;;;;;;;;;5055713;28;20188;-66
2021/04/05 02:49:01;;;;;;;29.45;9.65;;;;;;;;;;5055801;28;20184;-65
2021/04/05 02:51:28;;;;;;;21.08;8.65;;;;;;;;;;5055933;28;20216;-66
2021/04/05 02:53:58;;;;;;;14.88;7.60;;;;;;;;;;5055891;28;20280;-65
2021/04/05 02:56:25;;;;;;;15.32;8.65;;;;;;;;;;5055670;28;20185;-65
2021/04/05 02:58:54;;;;;;;16.80;8.57;;;;;;;;;;5055505;28;20196;-66
2021/04/05 03:01:23;;;;;;;16.30;9.63;;;;;;;;;;5055295;28;20556;-66
2021/04/05 03:03:50;;;;;;;14.30;8.80;;;;;;;;;;5054792;28;20196;-66
2021/04/05 03:06:21;;;;;;;19.85;8.95;;;;;;;;;;5037139;28;20675;-65
2021/04/05 03:08:48;;;;;;;16.38;8.82;;;;;;;;;;5055057;28;20205;-66
2021/04/05 03:11:15;;;;;;;13.98;9.18;;;;;;;;;;5054881;28;20192;-65
2021/04/05 03:13:46;;;;;;;17.55;9.40;;;;;;;;;;5054551;28;20635;-65
2021/04/05 03:16:17;;;;;;;15.35;8.50;;;;;;;;;;5054790;28;20219;-66
2021/04/05 03:18:44;;;;;;;21.77;9.02;;;;;;;;;;5055505;28;20219;-65
2021/04/05 03:21:14;;;;;;;17.20;8.88;;;;;;;;;;5055507;28;20682;-66
2021/04/05 03:23:43;;;;;;;16.10;8.20;;;;;;;;;;5055758;28;20216;-66
2021/04/05 03:26:09;;;;;;;19.77;9.13;;;;;;;;;;5055512;28;20212;-65
2021/04/05 03:28:38;;;;;;;12.93;7.72;;;;;;;;;;5055937;28;20193;-66
2021/04/05 03:31:10;;;;;;;11.68;8.07;;;;;;;;;;5055133;28;20210;-66
2021/04/05 03:33:52;;;;;;;12.48;7.80;;;;;;;;;;5055254;28;20200;-66
2021/04/05 03:36:48;;;;;;;13.43;8.52;;;;;;;;;;5055216;28;20203;-65
2021/04/05 03:39:15;;;;;;;15.95;8.70;;;;;;;;;;5034563;28;20201;-66
2021/04/05 03:41:54;;;;;;;14.90;7.90;;;;;;;;;;5055031;28;20236;-66
2021/04/05 03:44:26;;;;;;;20.17;8.27;;;;;;;;;;5055501;28;20196;-66
2021/04/05 03:46:56;;;;;;;20.55;7.80;;;;;;;;;;5054953;28;20197;-65
2021/04/05 03:49:29;;;;;;;20.45;9.32;;;;;;;;;;5054936;28;20658;-65
2021/04/05 03:52:10;;;;;;;22.88;9.57;;;;;;;;;;5037126;28;20275;-66
2021/04/05 03:54:58;;;;;;;14.80;9.80;;;;;;;;;;5054947;28;20176;-65
2021/04/05 03:57:32;;;;;;;16.58;9.60;;;;;;;;;;5055280;28;20200;-65
2021/04/05 04:00:07;;;;;;;17.55;8.55;;;;;;;;;;5055016;28;20201;-66
2021/04/05 04:02:36;;;;;;;16.17;8.63;;;;;;;;;;5054773;28;20181;-65
2021/04/05 04:05:11;;;;;;;28.85;8.95;;;;;;;;;;5055565;28;20177;-66
2021/04/05 04:07:45;;;;;;;13.52;8.93;;;;;;;;;;5055523;28;20165;-65
2021/04/05 04:10:14;;;;;;;21.20;9.18;;;;;;;;;;5036867;28;20208;-65
2021/04/05 04:12:44;;;;;;;18.15;9.48;;;;;;;;;;5037750;28;20204;-66
2021/04/05 04:15:14;;;;;;;26.88;11.10;;;;;;;;;;5037673;28;20617;-66
2021/04/05 04:17:42;;;;;;;21.35;8.80;;;;;;;;;;5055342;28;20197;-66
2021/04/05 04:20:11;;;;;;;19.67;8.85;;;;;;;;;;5055196;28;20307;-66
2021/04/05 04:22:41;;;;;;;15.80;8.73;;;;;;;;;;5055566;28;20235;-66
2021/04/05 04:25:08;;;;;;;22.02;8.90;;;;;;;;;;5054506;28;20224;-65
2021/04/05 04:27:36;;;;;;;20.92;10.43;;;;;;;;;;5055003;28;20200;-66
2021/04/05 04:30:04;;;;;;;13.23;8.55;;;;;;;;;;5054887;28;20267;-66
2021/04/05 04:32:31;;;;;;;18.77;8.32;;;;;;;;;;5055430;28;20207;-66
2021/04/05 04:35:00;;;;;;;22.58;10.30;;;;;;;;;;5054797;28;20279;-66
2021/04/05 04:37:27;;;;;;;18.45;8.88;;;;;;;;;;5055103;28;20208;-66
2021/04/05 04:39:56;;;;;;;17.75;8.68;;;;;;;;;;5054338;28;20232;-66
2021/04/05 04:42:24;;;;;;;18.45;9.02;;;;;;;;;;5053675;28;20227;-66
2021/04/05 04:44:51;;;;;;;19.65;10.63;;;;;;;;;;5036378;28;20709;-66
2021/04/05 04:47:17;;;;;;;17.20;9.98;;;;;;;;;;5037052;28;20284;-66
2021/04/05 04:49:47;;;;;;;19.23;9.77;;;;;;;;;;5057274;28;20197;-66
2021/04/05 04:52:14;;;;;;;19.10;8.40;;;;;;;;;;5058412;28;20208;-65
2021/04/05 04:54:43;;;;;;;20.13;10.05;;;;;;;;;;5058358;28;20201;-66
2021/04/05 04:57:13;;;;;;;22.23;11.27;;;;;;;;;;5058793;28;20538;-66
2021/04/05 04:59:44;;;;;;;20.33;11.80;;;;;;;;;;5041665;28;20569;-66
2021/04/05 05:02:15;;;;;;;26.98;11.63;;;;;;;;;;5058812;28;20185;-66
2021/04/05 05:04:42;;;;;;;23.30;11.05;;;;;;;;;;5058312;28;20640;-66
2021/04/05 05:07:09;;;;;;;21.00;10.85;;;;;;;;;;5057828;28;20188;-66
2021/04/05 05:09:37;;;;;;;21.35;10.52;;;;;;;;;;5058140;28;20643;-66
2021/04/05 05:12:04;;;;;;;26.02;11.98;;;;;;;;;;5057848;28;20231;-66
2021/04/05 05:14:30;;;;;;;24.15;10.80;;;;;;;;;;5040248;28;20601;-66
2021/04/05 05:17:01;;;;;;;20.38;11.10;;;;;;;;;;5059085;28;20195;-66
2021/04/05 05:19:28;;;;;;;22.95;10.88;;;;;;;;;;5058707;28;20193;-66
2021/04/05 05:22:00;;;;;;;22.35;10.90;;;;;;;;;;5058747;28;20183;-66
2021/04/05 05:24:29;;;;;;;20.35;12.25;;;;;;;;;;5040109;28;20634;-66
2021/04/05 05:26:57;;;;;;;23.15;11.38;;;;;;;;;;5058149;28;20200;-66
2021/04/05 05:29:24;;;;;;;29.42;12.02;;;;;;;;;;5057796;28;20196;-66
2021/04/05 05:31:50;;;;;;;23.55;11.73;;;;;;;;;;5057947;28;20207;-66
2021/04/05 05:34:22;;;;;;;22.92;13.20;;;;;;;;;;5057877;28;20236;-66
2021/04/05 05:36:49;;;;;;;20.90;12.40;;;;;;;;;;5057456;28;20652;-66
2021/04/05 05:39:16;;;;;;;31.30;13.02;;;;;;;;;;5057925;28;20199;-66
2021/04/05 05:41:52;;;;;;;20.65;11.60;;;;;;;;;;5039229;28;20232;-66
2021/04/05 05:44:24;;;;;;;20.40;12.38;;;;;;;;;;5057269;28;20180;-65
2021/04/05 05:47:04;;;;;;;24.42;13.90;;;;;;;;;;5057227;28;20177;-66
2021/04/05 05:49:57;;;;;;;27.88;13.18;;;;;;;;;;5056719;28;20185;-65
2021/04/05 05:52:42;;;;;;;29.92;14.43;;;;;;;;;;5029032;28;20246;-66
2021/04/05 05:55:09;;;;;;;23.38;12.90;;;;;;;;;;5057347;28;20272;-66
2021/04/05 05:57:44;;;;;;;25.90;13.48;;;;;;;;;;5057153;28;20203;-65
2021/04/05 06:00:15;;;;;;;26.80;14.32;;;;;;;;;;5055962;28;20216;-66
2021/04/05 06:02:48;;;;;;;25.58;14.07;;;;;;;;;;5048273;28;20200;-66
2021/04/05 06:05:18;;;;;;;27.95;13.20;;;;;;;;;;5056019;28;20250;-66
2021/04/05 06:08:18;;;;;;;29.25;15.73;;;;;;;;;;5041921;28;20200;-66
2021/04/05 06:11:04;;;;;;;23.10;14.15;;;;;;;;;;5003242;28;20587;-66
2021/04/05 06:13:33;;;;;;;27.17;13.65;;;;;;;;;;5056336;28;20211;-66
2021/04/05 06:16:15;;;;;;;34.03;14.90;;;;;;;;;;5056050;28;20196;-66
2021/04/05 06:18:46;;;;;;;31.98;15.95;;;;;;;;;;5056668;28;20211;-66
2021/04/05 06:21:23;;;;;;;30.60;14.73;;;;;;;;;;5057009;28;20231;-66
2021/04/05 06:23:51;;;;;;;27.23;13.63;;;;;;;;;;5057186;28;20184;-66
2021/04/05 06:26:22;;;;;;;25.30;15.40;;;;;;;;;;5056793;28;20207;-66
2021/04/05 06:29:07;;;;;;;29.70;15.07;;;;;;;;;;5056977;28;20193;-66
2021/04/05 06:31:43;;;;;;;31.30;14.25;;;;;;;;;;5039256;28;20303;-67
2021/04/05 06:34:19;;;;;;;35.70;16.67;;;;;;;;;;5056828;28;20203;-66
2021/04/05 06:36:49;;;;;;;28.77;14.95;;;;;;;;;;5057200;28;20184;-65
2021/04/05 06:39:21;;;;;;;25.00;15.95;;;;;;;;;;5057638;28;20251;-66
2021/04/05 06:42:08;;;;;;;27.58;16.45;;;;;;;;;;5057277;28;20290;-66
2021/04/05 06:44:37;;;;;;;27.05;14.15;;;;;;;;;;5057395;28;20180;-66
2021/04/05 06:47:06;;;;;;;29.50;15.07;;;;;;;;;;5057395;28;20197;-66
2021/04/05 06:49:52;;;;;;;29.35;16.35;;;;;;;;;;5057162;28;20192;-66
2021/04/05 06:52:34;;;;;;;31.27;15.48;;;;;;;;;;5056558;28;20213;-66
2021/04/05 06:55:07;;;;;;;30.02;15.95;;;;;;;;;;5057280;28;20183;-67
2021/04/05 06:58:07;;;;;;;33.08;15.82;;;;;;;;;;5056331;28;20177;-66
2021/04/05 07:00:52;;;;;;;25.70;15.82;;;;;;;;;;5012685;28;20235;-66
2021/04/05 07:03:37;;;;;;;31.58;16.35;;;;;;;;;;5056188;28;20189;-66
2021/04/05 07:06:23;;;;;;;27.55;15.25;;;;;;;;;;5056504;28;20643;-67
2021/04/05 07:09:04;;;;;;;41.35;16.65;;;;;;;;;;5054521;28;20193;-66
2021/04/05 07:11:37;;;;;;;39.20;18.48;;;;;;;;;;5055239;28;20560;-67
2021/04/05 07:14:09;;;;;;;36.38;17.00;;;;;;;;;;5055712;28;20195;-68
2021/04/05 07:16:52;;;;;;;38.65;19.23;;;;;;;;;;5055991;28;20616;-66
2021/04/05 07:19:37;;;;;;;27.40;15.80;;;;;;;;;;5056417;28;20180;-67
2021/04/05 07:22:15;;;;;;;31.63;16.85;;;;;;;;;;5055439;28;20201;-67
2021/04/05 07:24:55;;;;;;;27.90;15.65;;;;;;;;;;5038833;28;20199;-66
2021/04/05 07:27:45;;;;;;;34.75;17.58;;;;;;;;;;5056330;28;20165;-66
2021/04/05 07:30:27;;;;;;;29.38;16.52;;;;;;;;;;5019310;28;20228;-66
2021/04/05 07:33:00;;;;;;;36.35;17.45;;;;;;;;;;5056812;28;20195;-67
2021/04/05 07:35:28;;;;;;;33.13;17.98;;;;;;;;;;5039324;28;20203;-67
2021/04/05 07:38:18;;;;;;;27.77;16.17;;;;;;;;;;5057274;28;20176;-66
2021/04/05 07:41:03;;;;;;;28.00;15.95;;;;;;;;;;5058149;28;20234;-66
2021/04/05 07:43:48;;;;;;;29.52;17.25;;;;;;;;;;5058091;28;20229;-66
2021/04/05 07:46:25;;;;;;;31.63;16.73;;;;;;;;;;5056845;28;20201;-67
2021/04/05 07:49:03;;;;;;;32.38;15.50;;;;;;;;;;5037457;28;20204;-66
2021/04/05 07:51:49;;;;;;;28.45;16.42;;;;;;;;;;5054937;28;20204;-67
2021/04/05 07:54:17;;;;;;;28.50;15.30;;;;;;;;;;5054487;28;20652;-67
2021/04/05 07:56:49;;;;;;;26.98;15.52;;;;;;;;;;5055685;28;20208;-67
2021/04/05 07:59:18;;;;;;;24.23;15.13;;;;;;;;;;5057619;28;20671;-67
2021/04/05 08:01:50;;;;;;;23.17;14.88;;;;;;;;;;5057708;28;20224;-67
2021/04/05 08:04:21;;;;;;;28.98;16.00;;;;;;;;;;5057268;28;20212;-65
2021/04/05 08:06:59;;;;;;;32.78;14.75;;;;;;;;;;5057016;28;20211;-66
2021/04/05 08:09:31;;;;;;;25.52;13.23;;;;;;;;;;5057556;28;20209;-66
2021/04/05 08:12:01;;;;;;;27.05;16.40;;;;;;;;;;5057912;28;20197;-66
2021/04/05 08:14:35;;;;;;;37.03;15.13;;;;;;;;;;5040291;28;20231;-67
2021/04/05 08:17:02;;;;;;;33.72;15.80;;;;;;;;;;5039946;28;20268;-66
2021/04/05 08:19:31;;;;;;;32.00;15.32;;;;;;;;;;5057568;28;20201;-66
2021/04/05 08:22:02;;;;;;;27.02;16.00;;;;;;;;;;5056458;28;20216;-67
2021/04/05 08:24:44;;;;;;;25.60;15.30;;;;;;;;;;5039644;28;20207;-66
2021/04/05 08:27:21;;;;;;;25.08;16.33;;;;;;;;;;5058405;28;20628;-67
2021/04/05 08:29:55;;;;;;;28.23;17.58;;;;;;;;;;5055691;28;20188;-66
2021/04/05 08:32:33;;;;;;;28.33;15.05;;;;;;;;;;5038324;28;20685;-67
2021/04/05 08:35:20;;;;;;;35.63;15.68;;;;;;;;;;5055090;28;20205;-66
2021/04/05 08:37:54;;;;;;;27.77;15.20;;;;;;;;;;5037777;28;20274;-65
2021/04/05 08:40:23;;;;;;;31.63;14.68;;;;;;;;;;5036270;28;20241;-66
2021/04/05 08:42:58;;;;;;;35.38;14.70;;;;;;;;;;5036598;28;20205;-66
2021/04/05 08:45:30;;;;;;;29.33;16.15;;;;;;;;;;5057283;28;20180;-66
2021/04/05 08:48:07;;;;;;;27.50;15.77;;;;;;;;;;5055324;28;20198;-66
2021/04/05 08:50:38;;;;;;;23.67;14.75;;;;;;;;;;5054342;28;20275;-67
2021/04/05 08:53:08;;;;;;;36.40;16.35;;;;;;;;;;5053900;28;20221;-67
2021/04/05 08:55:41;;;;;;;40.53;19.10;;;;;;;;;;5053238;28;20180;-66
2021/04/05 08:58:09;;;;;;;30.13;15.52;;;;;;;;;;5035197;28;20627;-66
2021/04/05 09:00:37;;;;;;;29.77;15.75;;;;;;;;;;5053130;28;20298;-67
2021/04/05 09:03:08;;;;;;;27.85;15.93;;;;;;;;;;5053583;28;20227;-66
2021/04/05 09:05:38;;;;;;;29.23;16.17;;;;;;;;;;5035570;28;20211;-64
2021/04/05 09:08:09;;;;;;;30.05;16.08;;;;;;;;;;5053582;28;20735;-66
2021/04/05 09:10:44;;;;;;;31.30;15.95;;;;;;;;;;5052835;28;20204;-66
2021/04/05 09:13:13;;;;;;;26.63;15.38;;;;;;;;;;5052407;28;20216;-66
2021/04/05 09:15:39;;;;;;;30.42;16.00;;;;;;;;;;5052962;28;20193;-65
2021/04/05 09:18:17;;;;;;;32.95;15.90;;;;;;;;;;5053044;28;20216;-66
2021/04/05 09:21:12;;;;;;;29.35;16.13;;;;;;;;;;5035038;28;20231;-65
2021/04/05 09:23:42;;;;;;;29.80;14.70;;;;;;;;;;5052828;28;20638;-66
2021/04/05 09:26:20;;;;;;;29.83;17.08;;;;;;;;;;5053182;28;20180;-67
2021/04/05 09:29:06;;;;;;;29.13;15.43;;;;;;;;;;5034620;28;20205;-66
2021/04/05 09:31:59;;;;;;;33.60;14.98;;;;;;;;;;5053071;28;20211;-66
2021/04/05 09:34:37;;;;;;;32.60;15.32;;;;;;;;;;5053696;28;20244;-67
2021/04/05 09:37:21;;;;;;;32.53;14.70;;;;;;;;;;5056252;28;20204;-67
2021/04/05 09:40:05;;;;;;;26.52;13.85;;;;;;;;;;5055972;28;20227;-66
2021/04/05 09:42:55;;;;;;;33.42;14.85;;;;;;;;;;5056186;28;20559;-66
2021/04/05 09:45:24;;;;;;;26.50;14.57;;;;;;;;;;5056170;28;20200;-65
2021/04/05 09:48:09;;;;;;;23.55;16.13;;;;;;;;;;5056153;28;20192;-65
2021/04/05 09:50:49;;;;;;;24.58;13.88;;;;;;;;;;5056379;28;20259;-67
2021/04/05 09:53:16;;;;;;;23.80;13.48;;;;;;;;;;5056350;28;20531;-66
2021/04/05 09:55:50;;;;;;;26.70;13.65;;;;;;;;;;5038034;28;20208;-67
2021/04/05 09:58:27;;;;;;;28.33;15.73;;;;;;;;;;5055728;28;20702;-67
2021/04/05 10:01:12;;;;;;;27.38;14.90;;;;;;;;;;5055265;28;20220;-66
2021/04/05 10:03:41;;;;;;;25.35;14.38;;;;;;;;;;5037604;28;20292;-67
2021/04/05 10:06:08;;;;;;;26.83;14.90;;;;;;;;;;5038208;28;20193;-67
2021/04/05 10:08:38;;;;;;;22.65;14.25;;;;;;;;;;5037883;28;20636;-65
2021/04/05 10:11:05;;;;;;;26.30;14.60;;;;;;;;;;5055379;28;20243;-65
2021/04/05 10:13:34;;;;;;;26.77;13.23;;;;;;;;;;5055191;28;20262;-66
2021/04/05 10:16:04;;;;;;;24.73;14.38;;;;;;;;;;5055650;28;20205;-65
2021/04/05 10:18:33;;;;;;;24.23;15.18;;;;;;;;;;5056791;28;20239;-67
2021/04/05 10:21:03;;;;;;;29.90;14.20;;;;;;;;;;5056177;28;20686;-66
2021/04/05 10:23:31;;;;;;;24.45;16.55;;;;;;;;;;5039047;28;20230;-66
2021/04/05 10:25:59;;;;;;;22.58;13.95;;;;;;;;;;5055657;28;20209;-67
2021/04/05 10:28:29;;;;;;;32.03;15.30;;;;;;;;;;5055635;28;20193;-66
2021/04/05 10:30:58;;;;;;;28.20;14.10;;;;;;;;;;5037921;28;20654;-66
2021/04/05 10:33:32;;;;;;;30.52;16.60;;;;;;;;;;5055420;28;20197;-66
2021/04/05 10:36:05;;;;;;;29.65;14.57;;;;;;;;;;5038468;28;20215;-66
2021/04/05 10:38:36;;;;;;;24.58;14.48;;;;;;;;;;5038123;28;20177;-66
2021/04/05 10:41:08;;;;;;;26.20;15.23;;;;;;;;;;5055004;28;20320;-66
2021/04/05 10:43:40;;;;;;;27.65;14.25;;;;;;;;;;5055438;28;20188;-66
2021/04/05 10:46:14;;;;;;;31.10;14.50;;;;;;;;;;5054633;28;20200;-66
2021/04/05 10:48:47;;;;;;;23.35;14.85;;;;;;;;;;5037700;28;20568;-65
2021/04/05 10:51:30;;;;;;;26.45;14.93;;;;;;;;;;5054953;28;20185;-64
2021/04/05 10:54:08;;;;;;;21.83;14.50;;;;;;;;;;5036907;28;20287;-65
2021/04/05 10:56:37;;;;;;;25.17;12.30;;;;;;;;;;5054603;28;20216;-65
2021/04/05 10:59:14;;;;;;;29.00;13.55;;;;;;;;;;5037042;28;20720;-66
2021/04/05 11:01:50;;;;;;;18.38;12.63;;;;;;;;;;5055174;28;20204;-66
2021/04/05 11:04:18;;;;;;;24.48;11.85;;;;;;;;;;5054634;28;20266;-66
2021/04/05 11:06:49;;;;;;;29.70;13.57;;;;;;;;;;5055700;28;20583;-65
2021/04/05 11:09:16;;;;;;;20.77;11.20;;;;;;;;;;5055246;28;20196;-65
2021/04/05 11:11:44;;;;;;;18.63;10.45;;;;;;;;;;5038183;28;20197;-66
2021/04/05 11:14:14;;;;;;;21.63;12.38;;;;;;;;;;5055094;28;20188;-65
2021/04/05 11:16:48;;;;;;;26.55;12.10;;;;;;;;;;5054903;28;20243;-66
2021/04/05 11:19:18;;;;;;;24.65;11.90;;;;;;;;;;5021993;28;20201;-70
2021/04/05 11:21:49;;;;;;;31.00;12.38;;;;;;;;;;5037213;28;20228;-66
2021/04/05 11:24:16;;;;;;;18.92;10.93;;;;;;;;;;5053985;28;20211;-66
2021/04/05 11:26:46;;;;;;;18.33;10.32;;;;;;;;;;5054597;28;20195;-65
2021/04/05 11:29:16;;;;;;;21.25;12.00;;;;;;;;;;5054640;28;20184;-66
2021/04/05 11:31:44;;;;;;;18.67;12.00;;;;;;;;;;5054685;28;20215;-66
2021/04/05 11:34:15;;;;;;;16.48;10.13;;;;;;;;;;5054377;28;20196;-64
2021/04/05 11:36:44;;;;;;;18.90;10.27;;;;;;;;;;5053970;28;20232;-65
2021/04/05 11:39:16;;;;;;;22.60;11.45;;;;;;;;;;5036227;28;20205;-65
2021/04/05 11:41:47;;;;;;;20.83;12.15;;;;;;;;;;5053946;28;20568;-65
2021/04/05 11:44:18;;;;;;;19.75;9.73;;;;;;;;;;5054642;28;20185;-66
2021/04/05 11:46:48;;;;;;;18.17;10.32;;;;;;;;;;5054163;28;20267;-65
2021/04/05 11:49:15;;;;;;;18.10;11.13;;;;;;;;;;5054120;28;20222;-65
2021/04/05 11:52:16;;;;;;;21.67;10.30;;;;;;;;;;5054089;28;20283;-65
2021/04/05 11:54:43;;;;;;;20.48;10.25;;;;;;;;;;5010327;28;20213;-66
2021/04/05 11:57:13;;;;;;;20.15;10.98;;;;;;;;;;5053774;28;20651;-66
2021/04/05 11:59:48;;;;;;;25.45;11.98;;;;;;;;;;5053530;28;20177;-65
2021/04/05 12:02:22;;;;;;;22.38;11.45;;;;;;;;;;5054188;28;20595;-65
2021/04/05 12:05:05;;;;;;;19.85;12.02;;;;;;;;;;5053737;28;20249;-65
2021/04/05 12:07:33;;;;;;;19.88;11.55;;;;;;;;;;5053674;28;20211;-65
2021/04/05 12:10:16;;;;;;;15.15;10.57;;;;;;;;;;5053914;28;20200;-65
2021/04/05 12:13:03;;;;;;;17.92;11.15;;;;;;;;;;5053989;28;20269;-64
2021/04/05 12:15:31;;;;;;;17.50;9.18;;;;;;;;;;5053284;28;20205;-65
2021/04/05 12:17:59;;;;;;;12.23;9.07;;;;;;;;;;5036170;28;20213;-67
2021/04/05 12:20:30;;;;;;;17.45;10.25;;;;;;;;;;5053785;28;20283;-66
2021/04/05 12:23:01;;;;;;;18.67;11.13;;;;;;;;;;5035619;28;20311;-66
2021/04/05 12:25:29;;;;;;;13.27;9.30;;;;;;;;;;5053421;28;20185;-66
2021/04/05 12:28:04;;;;;;;25.60;10.80;;;;;;;;;;5053534;28;20177;-66
2021/04/05 12:30:32;;;;;;;13.35;9.63;;;;;;;;;;5053563;28;20227;-65
2021/04/05 12:33:00;;;;;;;17.85;9.77;;;;;;;;;;5053267;28;20215;-66
2021/04/05 12:35:28;;;;;;;12.77;8.77;;;;;;;;;;5053515;28;20215;-66
2021/04/05 12:37:56;;;;;;;20.80;10.07;;;;;;;;;;5053488;28;20189;-64
2021/04/05 12:40:27;;;;;;;16.65;9.98;;;;;;;;;;5053117;28;20326;-65
2021/04/05 12:42:54;;;;;;;11.90;8.55;;;;;;;;;;5053221;28;20236;-66
2021/04/05 12:45:22;;;;;;;15.05;9.40;;;;;;;;;;5053586;28;20188;-66
2021/04/05 12:47:51;;;;;;;14.15;8.30;;;;;;;;;;5053730;28;20557;-66
2021/04/05 12:50:22;;;;;;;12.95;9.40;;;;;;;;;;5053074;28;20211;-66
2021/04/05 12:52:49;;;;;;;14.63;10.80;;;;;;;;;;5035769;28;20208;-66
2021/04/05 12:55:18;;;;;;;15.88;9.35;;;;;;;;;;5052587;28;20296;-65
2021/04/05 12:57:45;;;;;;;15.20;10.65;;;;;;;;;;5052892;28;20208;-66
2021/04/05 13:00:18;;;;;;;16.20;11.63;;;;;;;;;;5053157;28;20254;-66
2021/04/05 13:02:46;;;;;;;16.77;11.38;;;;;;;;;;5054891;28;20312;-65
2021/04/05 13:05:20;;;;;;;19.50;10.85;;;;;;;;;;5053110;28;20197;-65
2021/04/05 13:07:49;;;;;;;15.90;12.60;;;;;;;;;;5053165;28;20177;-66
2021/04/05 13:10:19;;;;;;;16.65;12.43;;;;;;;;;;5054749;28;20212;-64
2021/04/05 13:12:49;;;;;;;17.88;12.52;;;;;;;;;;5057718;28;20522;-65
2021/04/05 13:15:20;;;;;;;23.50;14.38;;;;;;;;;;5056940;28;20200;-65
2021/04/05 13:17:50;;;;;;;27.30;14.13;;;;;;;;;;5056891;28;20246;-66
2021/04/05 13:20:19;;;;;;;20.50;15.73;;;;;;;;;;5056906;28;20195;-66
2021/04/05 13:22:55;;;;;;;18.80;13.80;;;;;;;;;;5039419;28;20200;-66
2021/04/05 13:25:32;;;;;;;23.95;15.10;;;;;;;;;;5056719;28;20184;-66
2021/04/05 13:28:02;;;;;;;19.17;14.35;;;;;;;;;;5056614;28;20264;-66
2021/04/05 13:30:32;;;;;;;26.10;16.70;;;;;;;;;;5056935;28;20226;-66
2021/04/05 13:33:01;;;;;;;23.45;14.25;;;;;;;;;;5056911;28;20252;-65
2021/04/05 13:35:31;;;;;;;24.17;15.20;;;;;;;;;;5056322;28;20623;-66
2021/04/05 13:38:04;;;;;;;25.48;15.95;;;;;;;;;;5056905;28;20193;-66
2021/04/05 13:40:32;;;;;;;26.73;16.65;;;;;;;;;;5056487;28;20228;-65
2021/04/05 13:42:59;;;;;;;27.25;17.52;;;;;;;;;;5056526;28;20213;-65
2021/04/05 13:45:36;;;;;;;24.55;15.43;;;;;;;;;;5056104;28;20235;-65
2021/04/05 13:48:09;;;;;;;21.42;14.25;;;;;;;;;;5056772;28;20525;-67
2021/04/05 13:50:36;;;;;;;19.50;13.57;;;;;;;;;;5055802;28;20201;-65
2021/04/05 13:53:06;;;;;;;23.00;14.38;;;;;;;;;;5056026;28;20656;-65
2021/04/05 13:55:40;;;;;;;20.02;13.07;;;;;;;;;;5056478;28;20173;-65
2021/04/05 13:58:11;;;;;;;19.70;12.88;;;;;;;;;;5037605;28;20200;-66
2021/04/05 14:00:44;;;;;;;18.13;13.93;;;;;;;;;;5056053;28;20207;-65
2021/04/05 14:03:19;;;;;;;20.05;13.90;;;;;;;;;;5056207;28;20224;-64
2021/04/05 14:05:49;;;;;;;19.00;13.20;;;;;;;;;;5055969;28;20222;-65
2021/04/05 14:08:22;;;;;;;23.85;14.40;;;;;;;;;;5055290;28;20545;-65
2021/04/05 14:11:04;;;;;;;16.30;11.02;;;;;;;;;;5056477;28;20536;-65
2021/04/05 14:13:35;;;;;;;15.80;10.50;;;;;;;;;;5056123;28;20196;-66
2021/04/05 14:16:02;;;;;;;15.15;11.07;;;;;;;;;;5056045;28;20246;-66
2021/04/05 14:18:34;;;;;;;12.80;11.00;;;;;;;;;;5055624;28;20201;-66
2021/04/05 14:21:01;;;;;;;13.23;8.98;;;;;;;;;;5054565;28;20197;-65
2021/04/05 14:23:30;;;;;;;15.60;9.48;;;;;;;;;;5055986;28;20542;-65
2021/04/05 14:26:02;;;;;;;28.55;15.73;;;;;;;;;;5055475;28;20196;-65
2021/04/05 14:28:34;;;;;;;19.17;11.10;;;;;;;;;;5055395;28;20203;-65
2021/04/05 14:31:20;;;;;;;18.23;9.45;;;;;;;;;;5055389;28;20212;-67
2021/04/05 14:33:56;;;;;;;14.32;7.70;;;;;;;;;;5055365;28;20267;-64
2021/04/05 14:36:28;;;;;;;6.00;4.25;;;;;;;;;;5056145;28;20188;-64
2021/04/05 14:38:58;;;;;;;2.75;1.60;;;;;;;;;;5055125;28;20209;-64
2021/04/05 14:41:27;;;;;;;1.45;1.20;;;;;;;;;;5055267;28;20241;-64
2021/04/05 14:43:57;;;;;;;1.23;1.13;;;;;;;;;;5055631;28;20223;-65
2021/04/05 14:46:24;;;;;;;2.47;1.02;;;;;;;;;;5055555;28;20189;-64
2021/04/05 14:48:51;;;;;;;1.75;1.63;;;;;;;;;;5055108;28;20223;-65